Terminal Aerodrome Forecast
Issued by NWS Buffalo, NY

Home | Current Version | Previous Version | Text Only | Print | Product List | Glossary On
Versions: 1 2 3 4 5 6 7 8 9 10 11 12 13 14 15 16 17 18 19 20 21 22 23 24 25 26 27 28 29 30 31 32
000
FTUS41 KBUF 011700
TAFART
TAF
KART 011726Z 0118/0218 20007KT 6SM -SN OVC025
     FM012000 22006KT 4SM -SN OVC020
     FM020000 23006KT 2SM -SN OVC020
     FM020500 25007KT 4SM -SN OVC030
     FM021200 25012KT P6SM VCSH OVC035
     FM021500 26015G25KT P6SM BKN040=

USA.gov is the U.S. government's official web portal to all federal, state and local government web resources and services.